Airfield :
LOGIN :

Register | Disclaimer

   EN    FR    IT 

 










Legend :    VFR   Marginal VFR   IFR   Intensive IFR   Very Intensive IFR
Visi :
Ceiling :
>= 8 km
>= 3000ft
5 to 8 km
1000 to 3000 ft
1500m to 5 km
500 to 1000 ft
800 to 1500m
200 to 500 ft
< 800m
< 200 ft
Symbols :   Thunderstorms  Fog  Heavy snow  Heavy precipitations  Wind > 20 kt
SIGMETs :     Misc.  Thunderstorms  Icing  Turbulence  Mountain Waves  Volcanic Ashes







- Airport Elevation : 425 ft
- IATA code : DTM


EDLW - Dortmund

CURRENT METAR :
  • 240020Z AUTO 13003KT 9999 // FEW098/// 14/07 Q0998

EXPIRED METARs :
  • 232350Z AUTO 07003KT 040V120 9999 // FEW110/// 14/08 Q0998
  • 232320Z AUTO 02003KT 330V040 9999 // FEW110/// 14/08 Q0998
  • 232250Z AUTO 09004KT 9999 // BKN110/// 14/08 Q0998
  • 232220Z AUTO 08004KT 9999 // BKN110/// 14/08 Q0998
  • 232150Z AUTO 09006KT 9999 // BKN120/// 14/08 Q0998

TAF TAF EDLW
Valid from the 23 at 18:00 until the 24 at 18:00 UTC


231700Z 2318/2418 08010KT CAVOK
TEMPO 2318/2320 10015KT
BECMG 2322/2401 14008KT
TEMPO 2410/2414 20015G25KT
No reported NOTAMs for that airfield.



MET'MAP, your aeronautical weather chart ! - Copyright ORBIFLY December 2007 - Disclaimer

ORBIFLY MET'MAP TEAM :

Programming & Development : Alexandra Zaïnal
Concept & Development : Baudouin d'Aumeries
Co-Development & Prog : Marc-Olivier Méhu
Technical & hardware support : Manuel Goepfert

Contact : metmap@orbifly.com




SOURCES & CREDITS :

   NOAA